• Join FlightAware (Why Join?)
  • Login
  • US Flag 
09:12PM EDT


 

Airport Tracker/Info


-or-


 

Live Flight TrackerFlight Track Log ✈ PDT4373 ✈ 13-Oct-2013 ✈ KBGM - KPHL

Flight Track Log - Related Links

Times and Time Zones

All times are in EDT time to prevent confusion due to time zone crossing. See the PDT4373 flight status page for this flight to view local times or setup timezone preferences in your user account.

Time Position Orientation Groundspeed Altitude Reporting Facility
EDT Latitude Longitude Course Direction KTS MPH feet Rate Location/Type
10:38AM 41.9654 -75.9002 180° South  Level Estimated
10:39AM 41.9046 -75.8804 160° South  Level Estimated
10:40AM 41.8421 -75.8772 178° South  Level FlightAware Approximate
10:41AM 41.7814 -75.8570 159° South  Level Estimated
10:42AM 41.7196 -75.8445 171° South  Level FlightAware Approximate
10:43AM 41.6590 -75.8241 153° Southeast  Level Estimated
10:44AM 41.5983 -75.8037 161° South  Level Estimated
10:45AM 41.5380 -75.7818 165° South  Level FlightAware Approximate
10:46AM 41.4776 -75.7598 165° South  Level FlightAware Approximate
10:47AM 41.4170 -75.7397 162° South  Level Estimated
10:48AM 41.3573 -75.7148 163° South  Level FlightAware Approximate
10:49AM 41.2976 -75.6899 163° South  Level FlightAware Approximate
10:50AM 41.2379 -75.6651 163° South  Level FlightAware Approximate
10:51AM 41.1771 -75.6458 159° South  Level Estimated
10:52AM 41.1163 -75.6266 163° South  Level Estimated
10:53AM 41.0570 -75.6003 161° South  Level FlightAware Approximate
10:54AM 40.9977 -75.5740 161° South  Level FlightAware Approximate
10:55AM 40.9384 -75.5477 162° South  Level FlightAware Approximate
10:56AM 40.8773 -75.5299 190° South  Level Estimated
10:57AM 40.8149 -75.5249 177° South  Level FlightAware Approximate
10:58AM 40.7525 -75.5200 177° South  Level FlightAware Approximate
10:59AM 40.6901 -75.5150 177° South  Level FlightAware Approximate
11:00AM 40.6295 -75.4945 187° South  Level Estimated
11:01AM 40.5690 -75.4740 190° South  Level Estimated
11:01AM 40.6000 -75.4833 143° Southeast 244 281 7,600  Level Philadelphia TRACON
11:02AM 40.5074 -75.4887 190° South  Level FlightAware Approximate
11:02AM 40.5500 -75.4833 180° South 265 305 6,900  Level Philadelphia TRACON
11:03AM 40.4459 -75.5034 190° South  Level FlightAware Approximate
11:03AM 40.4833 -75.5000 191° South 268 308 6,000  Level Philadelphia TRACON
11:04AM 40.3869 -75.4762 143° Southeast  Level Estimated
11:04AM 40.4167 -75.5167 191° South 266 306 5,200  Level Philadelphia TRACON
11:05AM 40.3279 -75.4490 143° Southeast  Level Estimated
11:05AM 40.3333 -75.5333 189° South 246 283 5,000  Level Philadelphia TRACON
11:06AM 40.2689 -75.4219 143° Southeast  Level Estimated
11:06AM 40.2667 -75.5333 180° South 240 276 5,000  Level Philadelphia TRACON
11:07AM 40.2000 -75.5333 180° South 238 274 5,000  Level Philadelphia TRACON
11:08AM 40.1333 -75.5500 191° South 239 275 5,000  Level Philadelphia TRACON
11:09AM 40.0833 -75.5667 194° South 244 281 5,000  Level Philadelphia TRACON
11:10AM 40.0333 -75.6167 217° Southwest 243 280 5,000  Level Philadelphia TRACON
11:11AM 39.9833 -75.6833 226° Southwest 233 268 5,000 -300 Level Philadelphia TRACON
11:12AM 39.9167 -75.6500 159° South 209 241 4,500 -780 Descending Philadelphia TRACON
11:13AM 39.8833 -75.6167 142° Southeast 196 226 3,500 -720 Descending Philadelphia TRACON
11:14AM 39.8500 -75.5500 123° Southeast 178 205 3,100 -480 Descending Philadelphia TRACON
11:15AM 39.8500 -75.4833 90° East 174 200 2,600 -540 Descending Philadelphia TRACON
11:16AM 39.8333 -75.4333 113° Southeast 166 191 2,000 -600 Descending Philadelphia TRACON
11:17AM 39.8500 -75.3667 72° East 166 191 1,400 -600 Descending Philadelphia TRACON
11:18AM 39.8500 -75.3167 90° East 119 137 800 -660 Descending Philadelphia TRACON
11:19AM 39.8667 -75.2833 57° Northeast 83 96 200 -720 Descending Philadelphia TRACON
11:21AM 39.8667 -75.2333 150° Southeast  Level FlightAware Approximate
11:28AM 39.8722 -75.2409 150° Southeast  Level Estimated